Time;durP1;ratioP1;P1;durP2;ratioP2;P2;SDS_P1;SDS_P2;PMS_P1;PMS_P2;Temp;Humidity;BMP_temperature;BMP_pressure;BME280_temperature;BME280_humidity;BME280_pressure;Samples;Min_cycle;Max_cycle;Signal;HPM_P1;HPM_P2
2022/08/29 00:00:51;;;;;;;;;;;;;;;15.22;91.02;102150.72;5018153;28;20350;-47
2022/08/29 00:03:17;;;;;;;;;;;;;;;15.21;90.16;102151.75;5019208;28;19909;-44
2022/08/29 00:05:42;;;;;;;;;;;;;;;15.17;88.24;102148.50;5015516;28;19917;-44
2022/08/29 00:08:07;;;;;;;;;;;;;;;15.14;88.14;102143.47;5030511;28;20217;-45
2022/08/29 00:10:34;;;;;;;;;;;;;;;15.12;91.04;102148.16;5035161;28;19995;-43
2022/08/29 00:12:59;;;;;;;;;;;;;;;15.04;91.74;102148.97;5037151;28;20375;-44
2022/08/29 00:15:25;;;;;;;;;;;;;;;15.01;89.93;102138.50;5036471;28;19971;-45
2022/08/29 00:17:50;;;;;;;;;;;;;;;15.01;88.65;102137.66;5024712;28;19967;-46
2022/08/29 00:20:17;;;;;;;;;;;;;;;14.98;90.87;102138.81;5015990;28;20136;-46
2022/08/29 00:22:42;;;;;;;;;;;;;;;14.95;88.38;102149.06;5033718;28;20386;-44
2022/08/29 00:25:09;;;;;;;;;;;;;;;14.89;88.65;102156.75;5036232;28;19931;-44
2022/08/29 00:27:34;;;;;;;;;;;;;;;14.87;89.32;102141.78;5027961;28;20259;-45
2022/08/29 00:30:00;;;;;;;;;;;;;;;14.86;88.28;102150.84;5017003;28;19908;-42
2022/08/29 00:32:27;;;;;;;;;;;;;;;14.84;90.52;102145.63;5030099;28;20284;-47
2022/08/29 00:34:52;;;;;;;;;;;;;;;14.72;93.26;102146.88;5036444;28;20004;-42
2022/08/29 00:37:17;;;;;;;;;;;;;;;14.60;93.46;102148.97;5029840;28;20003;-45
2022/08/29 00:39:43;;;;;;;;;;;;;;;14.51;91.29;102139.97;5015939;28;20331;-43
2022/08/29 00:42:08;;;;;;;;;;;;;;;14.52;90.51;102151.56;5028097;28;20037;-46
2022/08/29 00:44:33;;;;;;;;;;;;;;;14.47;91.53;102153.88;5022016;28;19967;-42
2022/08/29 00:47:02;;;;;;;;;;;;;;;14.43;90.45;102158.72;5019759;28;19919;-43
2022/08/29 00:49:30;;;;;;;;;;;;;;;14.44;90.40;102168.44;5034515;28;19909;-44
2022/08/29 00:51:59;;;;;;;;;;;;;;;14.45;90.22;102155.88;5024620;28;19921;-47
2022/08/29 00:54:25;;;;;;;;;;;;;;;14.42;90.37;102162.38;5015249;28;19928;-46
2022/08/29 00:56:51;;;;;;;;;;;;;;;14.41;89.72;102149.97;5018292;28;19932;-48
2022/08/29 00:59:21;;;;;;;;;;;;;;;14.43;90.51;102155.19;5036623;28;20185;-43
2022/08/29 01:01:47;;;;;;;;;;;;;;;14.39;90.35;102153.78;5026537;28;19913;-44
2022/08/29 01:04:12;;;;;;;;;;;;;;;14.32;90.33;102150.88;5016495;28;19916;-46
2022/08/29 01:06:38;;;;;;;;;;;;;;;14.27;90.35;102153.19;5014924;28;19913;-43
2022/08/29 01:09:04;;;;;;;;;;;;;;;14.24;91.42;102156.16;5033756;28;20636;-44
2022/08/29 01:14:15;;;;;;;;;;;;;;;14.14;90.71;102154.41;5020204;28;20051;-45
2022/08/29 01:16:40;;;;;;;;;;;;;;;14.15;91.38;102157.94;5018848;28;20411;-44
2022/08/29 01:19:26;;;;;;;;;;;;;;;14.13;91.68;102154.56;5039846;28;20245;-43
2022/08/29 01:22:14;;;;;;;;;;;;;;;14.05;96.86;102155.31;5028366;28;19928;-44
2022/08/29 01:24:42;;;;;;;;;;;;;;;13.92;93.48;102154.84;5017854;28;20411;-46
2022/08/29 01:27:09;;;;;;;;;;;;;;;13.83;92.38;102156.56;5022509;28;19920;-42
2022/08/29 01:29:35;;;;;;;;;;;;;;;13.80;93.31;102167.63;5029514;28;19909;-44
2022/08/29 01:32:00;;;;;;;;;;;;;;;13.78;92.46;102165.09;5031963;28;20398;-44
2022/08/29 01:34:26;;;;;;;;;;;;;;;13.78;92.45;102153.50;5039317;28;20347;-46
2022/08/29 01:36:54;;;;;;;;;;;;;;;13.79;92.48;102152.50;5036388;28;19916;-42
2022/08/29 01:39:22;;;;;;;;;;;;;;;13.77;92.64;102155.34;5017267;28;20344;-44
2022/08/29 01:41:48;;;;;;;;;;;;;;;13.76;92.99;102148.31;5028646;28;20200;-42
2022/08/29 01:44:17;;;;;;;;;;;;;;;13.72;92.57;102144.22;5039960;28;19909;-45
2022/08/29 01:46:43;;;;;;;;;;;;;;;13.71;92.46;102144.34;5038321;28;19927;-44
2022/08/29 01:49:09;;;;;;;;;;;;;;;13.71;92.99;102147.88;5019338;28;19928;-47
2022/08/29 01:51:36;;;;;;;;;;;;;;;13.70;94.33;102140.00;5028681;28;19916;-47
2022/08/29 01:54:04;;;;;;;;;;;;;;;13.68;93.31;102145.50;5038836;28;20492;-47
2022/08/29 01:56:31;;;;;;;;;;;;;;;13.65;94.49;102147.66;5038273;28;19912;-43
2022/08/29 01:58:57;;;;;;;;;;;;;;;13.62;92.68;102143.41;5021197;28;20354;-44
2022/08/29 02:01:24;;;;;;;;;;;;;;;13.60;92.78;102153.47;5024213;28;20243;-45
2022/08/29 02:03:50;;;;;;;;;;;;;;;13.52;93.67;102159.56;5019203;28;19952;-44
2022/08/29 02:06:15;;;;;;;;;;;;;;;13.48;93.79;102154.66;5017682;28;19959;-46
2022/08/29 02:08:42;;;;;;;;;;;;;;;13.38;94.67;102144.78;5033351;28;19960;-43
2022/08/29 02:11:09;;;;;;;;;;;;;;;13.37;94.04;102148.50;5038647;28;20339;-47
2022/08/29 02:13:45;;;;;;;;;;;;;;;13.37;94.10;102144.94;5038817;28;19952;-46
2022/08/29 02:16:10;;;;;;;;;;;;;;;13.31;94.54;102137.47;5037192;28;19917;-44
2022/08/29 02:18:35;;;;;;;;;;;;;;;13.34;94.41;102142.53;5024408;28;20179;-47
2022/08/29 02:21:01;;;;;;;;;;;;;;;13.32;96.70;102139.16;5017804;28;19913;-43
2022/08/29 02:23:27;;;;;;;;;;;;;;;13.27;95.39;102144.94;5018565;28;20004;-40
2022/08/29 02:25:52;;;;;;;;;;;;;;;13.18;99.10;102140.47;5017907;28;19952;-46
2022/08/29 02:28:19;;;;;;;;;;;;;;;13.12;96.79;102149.97;5030078;28;19962;-43
2022/08/29 02:30:47;;;;;;;;;;;;;;;13.11;95.86;102158.97;5037878;28;19922;-42
2022/08/29 02:33:13;;;;;;;;;;;;;;;13.15;95.60;102160.41;5038241;28;19956;-43
2022/08/29 02:35:38;;;;;;;;;;;;;;;13.15;98.51;102170.25;5036947;28;20389;-42
2022/08/29 02:38:04;;;;;;;;;;;;;;;13.12;97.05;102174.09;5026697;28;19913;-45
2022/08/29 02:40:29;;;;;;;;;;;;;;;13.12;95.67;102168.72;5018387;28;20375;-44
2022/08/29 02:42:55;;;;;;;;;;;;;;;13.10;95.68;102165.31;5018061;28;20540;-45
2022/08/29 02:45:21;;;;;;;;;;;;;;;13.06;96.12;102167.44;5024513;28;20011;-43
2022/08/29 02:47:46;;;;;;;;;;;;;;;13.03;96.85;102166.91;5028016;28;19940;-43
2022/08/29 02:50:12;;;;;;;;;;;;;;;13.00;98.08;102170.72;5017290;28;19928;-44
2022/08/29 02:52:38;;;;;;;;;;;;;;;12.99;96.62;102168.19;5017805;28;20256;-43
2022/08/29 02:55:04;;;;;;;;;;;;;;;13.00;96.88;102170.72;5017472;28;19909;-44
2022/08/29 02:57:29;;;;;;;;;;;;;;;13.03;97.71;102172.25;5024366;28;19935;-44
2022/08/29 02:59:54;;;;;;;;;;;;;;;13.01;97.58;102176.94;5036563;28;20367;-43
2022/08/29 03:02:19;;;;;;;;;;;;;;;12.99;98.46;102182.44;5037347;28;20109;-44
2022/08/29 03:04:45;;;;;;;;;;;;;;;12.97;97.37;102183.59;5037126;28;19916;-44
2022/08/29 03:07:10;;;;;;;;;;;;;;;12.94;97.43;102175.81;5033001;28;19913;-44
2022/08/29 03:09:35;;;;;;;;;;;;;;;12.93;97.26;102174.97;5017804;28;19970;-43
2022/08/29 03:12:00;;;;;;;;;;;;;;;12.94;98.29;102168.63;5016588;28;19939;-42
2022/08/29 03:14:25;;;;;;;;;;;;;;;12.91;97.80;102165.38;5017503;28;20168;-45
2022/08/29 03:16:51;;;;;;;;;;;;;;;12.86;98.98;102164.00;5018789;28;20232;-44
2022/08/29 03:19:17;;;;;;;;;;;;;;;12.81;98.89;102168.94;5037748;28;19918;-42
2022/08/29 03:21:43;;;;;;;;;;;;;;;12.77;98.40;102167.50;5035559;28;19901;-44
2022/08/29 03:24:08;;;;;;;;;;;;;;;12.72;99.38;102164.41;5036078;28;19962;-45
2022/08/29 03:26:33;;;;;;;;;;;;;;;12.68;99.11;102160.34;5069091;28;19908;-43
2022/08/29 03:28:58;;;;;;;;;;;;;;;12.63;99.80;102158.09;5017865;28;19959;-45
2022/08/29 03:31:24;;;;;;;;;;;;;;;12.64;98.93;102158.91;5014950;28;20431;-45
2022/08/29 03:33:49;;;;;;;;;;;;;;;12.62;99.15;102159.06;5015374;28;19913;-42
2022/08/29 03:36:14;;;;;;;;;;;;;;;12.60;100.00;102154.84;5015838;28;19948;-42
2022/08/29 03:38:40;;;;;;;;;;;;;;;12.55;100.00;102146.38;5032803;28;19912;-42
2022/08/29 03:41:06;;;;;;;;;;;;;;;12.53;99.43;102145.69;5037108;28;19971;-40
2022/08/29 03:43:31;;;;;;;;;;;;;;;12.50;100.00;102152.16;5037515;28;19908;-45
2022/08/29 03:45:56;;;;;;;;;;;;;;;12.43;100.00;102157.25;5035375;28;19909;-42
2022/08/29 03:48:22;;;;;;;;;;;;;;;12.35;100.00;102146.38;5022159;28;20120;-44
2022/08/29 03:50:47;;;;;;;;;;;;;;;12.29;100.00;102150.47;5047624;28;20342;-45
2022/08/29 03:53:12;;;;;;;;;;;;;;;12.31;100.00;102144.97;5017021;28;19939;-44
2022/08/29 03:55:38;;;;;;;;;;;;;;;12.34;99.36;102138.47;5016045;28;19920;-45
2022/08/29 03:58:03;;;;;;;;;;;;;;;12.38;99.90;102131.88;5027631;28;20020;-41
2022/08/29 04:00:28;;;;;;;;;;;;;;;12.38;100.00;102129.19;5036791;28;19916;-44
2022/08/29 04:02:54;;;;;;;;;;;;;;;12.38;99.88;102131.88;5021239;28;19915;-42
2022/08/29 04:05:19;;;;;;;;;;;;;;;12.39;99.82;102129.06;5014035;28;19998;-47
2022/08/29 04:07:44;;;;;;;;;;;;;;;12.40;99.49;102124.53;5024539;28;19912;-43
2022/08/29 04:10:11;;;;;;;;;;;;;;;12.40;100.00;102120.00;5035540;28;19907;-41
2022/08/29 04:12:36;;;;;;;;;;;;;;;12.40;100.00;102128.03;5033259;28;19913;-43
2022/08/29 04:15:03;;;;;;;;;;;;;;;12.36;100.00;102123.97;5024435;28;19909;-41
2022/08/29 04:17:29;;;;;;;;;;;;;;;12.31;100.00;102139.63;5026484;28;20110;-47
2022/08/29 04:19:55;;;;;;;;;;;;;;;12.29;100.00;102134.41;5015547;28;20257;-42
2022/08/29 04:22:20;;;;;;;;;;;;;;;12.30;100.00;102136.09;5016907;28;20356;-43
2022/08/29 04:24:45;;;;;;;;;;;;;;;12.28;100.00;102151.44;5016597;28;19915;-44
2022/08/29 04:27:10;;;;;;;;;;;;;;;12.27;100.00;102141.75;5022927;28;20062;-42
2022/08/29 04:29:37;;;;;;;;;;;;;;;12.29;100.00;102144.28;5035911;28;20163;-47
2022/08/29 04:32:03;;;;;;;;;;;;;;;12.28;100.00;102151.44;5036648;28;19975;-44
2022/08/29 04:34:28;;;;;;;;;;;;;;;12.25;100.00;102157.13;5035266;28;19909;-46
2022/08/29 04:36:53;;;;;;;;;;;;;;;12.19;100.00;102157.66;5028289;28;20012;-45
2022/08/29 04:39:18;;;;;;;;;;;;;;;12.13;100.00;102153.72;5022144;28;20202;-42
2022/08/29 04:41:44;;;;;;;;;;;;;;;12.08;100.00;102155.97;5033494;28;19905;-45
2022/08/29 04:44:10;;;;;;;;;;;;;;;12.03;100.00;102150.19;5025327;28;19955;-42
2022/08/29 04:46:36;;;;;;;;;;;;;;;12.03;100.00;102147.50;5036872;28;20195;-44
2022/08/29 04:49:01;;;;;;;;;;;;;;;12.03;100.00;102146.63;5040066;28;19919;-44
2022/08/29 04:51:27;;;;;;;;;;;;;;;12.02;100.00;102148.47;5039124;28;19908;-45
2022/08/29 04:53:52;;;;;;;;;;;;;;;12.04;100.00;102153.69;5039288;28;19916;-45
2022/08/29 04:56:18;;;;;;;;;;;;;;;12.03;100.00;102146.63;5039965;28;19908;-46
2022/08/29 04:58:44;;;;;;;;;;;;;;;12.02;100.00;102151.16;5040406;28;19913;-46
2022/08/29 05:01:13;;;;;;;;;;;;;;;12.03;100.00;102150.19;5038583;28;19909;-47
2022/08/29 05:03:38;;;;;;;;;;;;;;;12.07;100.00;102158.78;5038793;28;19913;-46
2022/08/29 05:06:07;;;;;;;;;;;;;;;12.12;100.00;102161.88;5037930;28;19927;-43
2022/08/29 05:08:33;;;;;;;;;;;;;;;12.18;100.00;102161.31;5039511;28;20390;-46
2022/08/29 05:10:58;;;;;;;;;;;;;;;12.24;100.00;102159.94;5039738;28;19908;-47
2022/08/29 05:13:23;;;;;;;;;;;;;;;12.25;100.00;102167.81;5039518;28;19913;-42
2022/08/29 05:15:49;;;;;;;;;;;;;;;12.28;100.00;102159.47;5038583;28;19908;-44
2022/08/29 05:18:16;;;;;;;;;;;;;;;12.28;100.00;102159.47;5039279;28;19919;-43
2022/08/29 05:20:42;;;;;;;;;;;;;;;12.26;100.00;102165.97;5037757;28;20422;-46
2022/08/29 05:23:07;;;;;;;;;;;;;;;12.27;100.00;102168.53;5038344;28;19912;-42
2022/08/29 05:25:33;;;;;;;;;;;;;;;12.31;100.00;102175.28;5038692;28;19919;-40
2022/08/29 05:27:58;;;;;;;;;;;;;;;12.34;100.00;102176.84;5038791;28;20260;-41
2022/08/29 05:30:24;;;;;;;;;;;;;;;12.33;100.00;102175.16;5037598;28;20185;-44
2022/08/29 05:32:49;;;;;;;;;;;;;;;12.38;100.00;102185.44;5037232;28;19917;-46
2022/08/29 05:35:14;;;;;;;;;;;;;;;12.40;100.00;102184.31;5037788;28;19913;-45
2022/08/29 05:37:39;;;;;;;;;;;;;;;12.47;100.00;102185.47;5037821;28;20371;-42
2022/08/29 05:40:05;;;;;;;;;;;;;;;12.50;100.00;102184.31;5038515;28;19917;-42
2022/08/29 05:42:30;;;;;;;;;;;;;;;12.55;100.00;102184.75;5038014;28;20351;-44
2022/08/29 05:44:55;;;;;;;;;;;;;;;12.58;100.00;102184.47;5038446;28;19913;-42
2022/08/29 05:47:21;;;;;;;;;;;;;;;12.65;100.00;102177.53;5037975;28;19928;-47
2022/08/29 05:49:47;;;;;;;;;;;;;;;12.75;100.00;102182.06;5035767;28;20015;-43
2022/08/29 05:52:14;;;;;;;;;;;;;;;12.83;100.00;102183.03;5037785;28;19916;-42
2022/08/29 05:54:40;;;;;;;;;;;;;;;12.86;100.00;102187.25;5038319;28;20371;-42
2022/08/29 05:57:06;;;;;;;;;;;;;;;12.88;100.00;102187.94;5036907;28;19917;-43
2022/08/29 05:59:31;;;;;;;;;;;;;;;12.94;100.00;102189.22;5038520;28;19908;-44
2022/08/29 06:01:56;;;;;;;;;;;;;;;13.00;100.00;102186.81;5030189;28;19909;-42
2022/08/29 06:04:22;;;;;;;;;;;;;;;13.06;100.00;102188.06;5017962;28;20003;-43
2022/08/29 06:06:49;;;;;;;;;;;;;;;13.14;100.00;102180.16;5018192;28;19916;-42
2022/08/29 06:09:14;;;;;;;;;;;;;;;13.24;100.00;102190.88;5018286;28;20149;-44
2022/08/29 06:11:39;;;;;;;;;;;;;;;13.29;100.00;102187.72;5018822;28;20364;-47
2022/08/29 06:14:05;;;;;;;;;;;;;;;13.34;100.00;102191.72;5017596;28;19909;-43
2022/08/29 06:16:31;;;;;;;;;;;;;;;13.42;100.00;102194.50;5017487;28;20011;-42
2022/08/29 06:18:57;;;;;;;;;;;;;;;13.49;100.00;102193.91;5049417;28;19913;-43
2022/08/29 06:21:22;;;;;;;;;;;;;;;13.53;100.00;102198.84;5016657;28;19908;-42
2022/08/29 06:23:47;;;;;;;;;;;;;;;13.60;100.00;102196.41;5017635;28;19919;-44
2022/08/29 06:26:14;;;;;;;;;;;;;;;13.71;100.00;102190.00;5016576;28;19916;-42
2022/08/29 06:28:40;;;;;;;;;;;;;;;13.76;100.00;102199.31;5018275;28;19916;-44
2022/08/29 06:31:10;;;;;;;;;;;;;;;13.82;100.00;102195.19;5017321;28;20221;-47
2022/08/29 06:33:35;;;;;;;;;;;;;;;13.91;100.00;102199.66;5018156;28;19913;-44
2022/08/29 06:36:01;;;;;;;;;;;;;;;14.01;100.00;102193.38;5016597;28;19974;-44
2022/08/29 06:38:26;;;;;;;;;;;;;;;14.07;100.00;102201.69;5049214;28;20023;-43
2022/08/29 06:40:51;;;;;;;;;;;;;;;14.15;100.00;102199.09;5016174;28;19955;-42
2022/08/29 06:43:17;;;;;;;;;;;;;;;14.25;100.00;102201.69;5018633;28;19909;-42
2022/08/29 06:45:42;;;;;;;;;;;;;;;14.31;100.00;102206.47;5017459;28;20319;-40
2022/08/29 06:48:07;;;;;;;;;;;;;;;14.37;100.00;102213.06;5017229;28;19913;-46
2022/08/29 06:50:36;;;;;;;;;;;;;;;14.42;100.00;102228.75;5017022;28;20487;-46
2022/08/29 06:53:02;;;;;;;;;;;;;;;14.50;100.00;102226.97;5018093;28;19920;-43
2022/08/29 06:55:28;;;;;;;;;;;;;;;14.61;100.00;102230.47;5014988;28;19908;-44
2022/08/29 06:57:53;;;;;;;;;;;;;;;14.73;100.00;102230.09;5017254;28;20011;-45
2022/08/29 07:00:20;;;;;;;;;;;;;;;14.89;100.00;102236.63;5018039;28;19955;-42
2022/08/29 07:02:46;;;;;;;;;;;;;;;14.99;100.00;102225.78;5030494;28;20360;-44
2022/08/29 07:05:11;;;;;;;;;;;;;;;15.04;100.00;102224.28;5036344;28;19924;-44
2022/08/29 07:07:37;;;;;;;;;;;;;;;15.18;100.00;102224.72;5036726;28;19917;-47
2022/08/29 07:10:02;;;;;;;;;;;;;;;15.24;100.00;102224.94;5035840;28;20058;-43
2022/08/29 07:12:27;;;;;;;;;;;;;;;15.30;100.00;102221.59;5031376;28;20208;-44
2022/08/29 07:14:53;;;;;;;;;;;;;;;15.41;100.00;102231.28;5036407;28;19924;-44
2022/08/29 07:17:19;;;;;;;;;;;;;;;15.64;100.00;102220.78;5021484;28;19916;-46
2022/08/29 07:19:44;;;;;;;;;;;;;;;16.03;100.00;102220.28;5036277;28;20000;-46
2022/08/29 07:22:10;;;;;;;;;;;;;;;16.32;100.00;102228.97;5028902;28;20332;-45
2022/08/29 07:24:35;;;;;;;;;;;;;;;16.39;100.00;102224.59;5017205;28;19913;-48
2022/08/29 07:27:00;;;;;;;;;;;;;;;16.47;100.00;102223.78;5018182;28;19913;-46
2022/08/29 07:29:25;;;;;;;;;;;;;;;16.55;100.00;102224.63;5017192;28;19916;-43
2022/08/29 07:31:51;;;;;;;;;;;;;;;16.68;100.00;102224.13;5016841;28;20431;-47
2022/08/29 07:34:17;;;;;;;;;;;;;;;16.78;99.64;102229.34;5025589;28;19913;-44
2022/08/29 07:36:43;;;;;;;;;;;;;;;16.82;96.95;102225.34;5036991;28;20403;-47
2022/08/29 07:39:10;;;;;;;;;;;;;;;16.75;97.64;102230.56;5036680;28;19920;-44
2022/08/29 07:41:36;;;;;;;;;;;;;;;16.71;97.45;102231.88;5036975;28;19908;-48
2022/08/29 07:44:02;;;;;;;;;;;;;;;16.69;97.60;102223.13;5027681;28;20360;-44
2022/08/29 07:46:27;;;;;;;;;;;;;;;16.79;97.95;102223.81;5016242;28;19916;-43
2022/08/29 07:48:53;;;;;;;;;;;;;;;16.95;96.11;102214.03;5015586;28;20294;-44
2022/08/29 07:51:21;;;;;;;;;;;;;;;17.01;96.27;102213.38;5016807;28;19916;-44
2022/08/29 07:53:46;;;;;;;;;;;;;;;16.99;96.04;102209.16;5016833;28;19917;-43
2022/08/29 07:56:14;;;;;;;;;;;;;;;16.98;96.40;102205.63;5048601;28;19916;-44
2022/08/29 07:58:39;;;;;;;;;;;;;;;17.12;95.71;102220.28;5016723;28;19996;-43
2022/08/29 08:01:05;;;;;;;;;;;;;;;17.23;96.70;102221.78;5023193;28;20008;-44
2022/08/29 08:03:31;;;;;;;;;;;;;;;17.33;95.75;102217.88;5036917;28;20457;-47
2022/08/29 08:05:56;;;;;;;;;;;;;;;17.37;95.35;102217.53;5035004;28;19975;-43
2022/08/29 08:08:22;;;;;;;;;;;;;;;17.48;94.38;102215.31;5037176;28;19995;-42
2022/08/29 08:10:47;;;;;;;;;;;;;;;17.56;93.81;102217.13;5035787;28;19912;-43
2022/08/29 08:13:12;;;;;;;;;;;;;;;17.60;92.40;102213.09;5035202;28;20009;-43
2022/08/29 08:15:38;;;;;;;;;;;;;;;17.67;93.16;102224.88;5036289;28;19967;-45
2022/08/29 08:18:03;;;;;;;;;;;;;;;17.78;93.28;102226.34;5035109;28;20364;-45
2022/08/29 08:20:28;;;;;;;;;;;;;;;17.93;92.16;102218.38;5037548;28;19909;-44
2022/08/29 08:22:54;;;;;;;;;;;;;;;18.08;93.01;102216.59;5040537;28;20403;-47
2022/08/29 08:25:19;;;;;;;;;;;;;;;18.25;92.16;102222.75;5040192;28;19915;-44
2022/08/29 08:27:44;;;;;;;;;;;;;;;18.42;91.66;102218.09;5041434;28;20079;-44
2022/08/29 08:30:10;;;;;;;;;;;;;;;18.50;89.53;102224.44;5040794;28;19920;-42
2022/08/29 08:32:35;;;;;;;;;;;;;;;18.44;86.82;102221.44;5040129;28;19916;-45
2022/08/29 08:35:00;;;;;;;;;;;;;;;18.41;87.53;102220.97;5039678;28;20155;-46
2022/08/29 08:37:25;;;;;;;;;;;;;;;18.49;89.27;102218.22;5040313;28;19916;-44
2022/08/29 08:39:54;;;;;;;;;;;;;;;18.57;84.37;102228.97;5039877;28;20378;-43
2022/08/29 08:42:25;;;;;;;;;;;;;;;18.57;84.51;102228.16;5038697;28;19908;-45
2022/08/29 08:44:56;;;;;;;;;;;;;;;18.62;85.22;102236.56;5022660;28;19955;-45
2022/08/29 08:47:27;;;;;;;;;;;;;;;18.64;84.27;102229.94;5051402;28;19909;-42
2022/08/29 08:50:00;;;;;;;;;;;;;;;18.74;80.66;102228.88;5018978;28;20019;-44
2022/08/29 08:52:34;;;;;;;;;;;;;;;18.90;82.35;102230.63;5019453;28;19913;-43
2022/08/29 08:55:01;;;;;;;;;;;;;;;19.25;83.54;102230.97;5039848;28;19915;-43
2022/08/29 08:57:31;;;;;;;;;;;;;;;19.43;79.27;102217.88;5039784;28;20264;-43
2022/08/29 08:59:57;;;;;;;;;;;;;;;19.52;78.00;102219.50;5038968;28;20418;-43
2022/08/29 09:02:40;;;;;;;;;;;;;;;19.60;80.43;102220.41;5038756;28;20336;-44
2022/08/29 09:05:24;;;;;;;;;;;;;;;19.61;79.23;102222.94;5018638;28;19985;-42
2022/08/29 09:08:27;;;;;;;;;;;;;;;19.62;71.69;102229.19;5029875;28;19916;-45
2022/08/29 09:10:57;;;;;;;;;;;;;;;19.53;77.18;102218.44;4996196;28;20560;-41
2022/08/29 09:13:34;;;;;;;;;;;;;;;19.60;75.65;102228.56;4996974;28;19913;-43
2022/08/29 09:16:04;;;;;;;;;;;;;;;19.65;75.66;102220.69;5010551;28;19912;-44
2022/08/29 09:18:32;;;;;;;;;;;;;;;19.51;72.90;102223.22;5039206;28;19915;-45
2022/08/29 09:20:58;;;;;;;;;;;;;;;19.45;74.66;102225.84;5038362;28;19915;-43
2022/08/29 09:23:53;;;;;;;;;;;;;;;19.46;73.43;102231.06;5039403;28;19913;-45
2022/08/29 09:26:19;;;;;;;;;;;;;;;19.46;72.09;102222.94;5038965;28;20343;-43
2022/08/29 09:28:45;;;;;;;;;;;;;;;19.48;75.74;102228.19;5039651;28;19919;-46
2022/08/29 09:31:31;;;;;;;;;;;;;;;19.48;72.96;102229.00;5038634;28;20007;-44
2022/08/29 09:33:57;;;;;;;;;;;;;;;19.43;71.88;102230.59;5038258;28;19936;-44
2022/08/29 09:36:41;;;;;;;;;;;;;;;19.48;72.67;102226.28;5038799;28;19908;-44
2022/08/29 09:39:27;;;;;;;;;;;;;;;19.52;75.40;102243.06;5038670;28;19909;-44
2022/08/29 09:41:57;;;;;;;;;;;;;;;19.54;72.27;102238.28;5037198;28;19913;-44
2022/08/29 09:44:24;;;;;;;;;;;;;;;19.62;71.91;102240.91;5038647;28;20323;-44
2022/08/29 09:47:22;;;;;;;;;;;;;;;19.67;74.32;102233.06;5028326;28;19967;-44
2022/08/29 09:50:03;;;;;;;;;;;;;;;19.77;72.83;102237.38;5016764;28;19909;-44
2022/08/29 09:52:28;;;;;;;;;;;;;;;19.95;71.81;102237.81;5018865;28;19919;-43
2022/08/29 09:54:53;;;;;;;;;;;;;;;20.25;68.84;102235.03;5018810;28;19912;-44
2022/08/29 09:57:21;;;;;;;;;;;;;;;20.34;63.62;102236.59;5026177;28;19975;-43
2022/08/29 09:59:49;;;;;;;;;;;;;;;20.49;67.80;102234.66;5020035;28;20060;-44
2022/08/29 10:02:19;;;;;;;;;;;;;;;20.49;70.26;102231.94;5018456;28;20368;-43
2022/08/29 10:04:46;;;;;;;;;;;;;;;20.38;70.37;102231.63;5035372;28;19942;-44
2022/08/29 10:07:15;;;;;;;;;;;;;;;20.25;67.86;102235.88;5026861;28;19917;-43
2022/08/29 10:09:51;;;;;;;;;;;;;;;20.28;69.92;102238.22;5018044;28;20016;-43
2022/08/29 10:12:21;;;;;;;;;;;;;;;20.40;67.55;102233.13;5033492;28;20012;-44
2022/08/29 10:14:53;;;;;;;;;;;;;;;20.44;69.43;102217.28;5034332;28;19959;-42
2022/08/29 10:20:27;;;;;;;;;;;;;;;20.73;64.75;102231.81;4974567;28;19981;-43
2022/08/29 10:22:57;;;;;;;;;;;;;;;20.68;66.96;102216.91;5011587;28;19920;-43
2022/08/29 10:25:31;;;;;;;;;;;;;;;20.83;64.82;102216.00;5036641;28;20452;-43
2022/08/29 10:28:01;;;;;;;;;;;;;;;20.90;64.67;102227.75;5035507;28;20262;-46
2022/08/29 10:30:33;;;;;;;;;;;;;;;21.17;65.74;102231.53;5036742;28;19909;-45
2022/08/29 10:32:58;;;;;;;;;;;;;;;21.75;61.44;102227.72;5037304;28;19923;-45
2022/08/29 10:35:28;;;;;;;;;;;;;;;22.30;60.59;102219.56;5037254;28;19913;-45
2022/08/29 10:38:12;;;;;;;;;;;;;;;22.76;55.76;102216.09;5037521;28;20054;-44
2022/08/29 10:40:54;;;;;;;;;;;;;;;22.97;57.89;102216.94;5036316;28;19944;-44
2022/08/29 10:43:22;;;;;;;;;;;;;;;23.29;56.66;102215.25;5035886;28;19955;-47
2022/08/29 10:45:50;;;;;;;;;;;;;;;23.49;55.26;102212.47;5034997;28;19956;-44
2022/08/29 10:48:19;;;;;;;;;;;;;;;23.56;58.17;102213.28;5036366;28;20322;-45
2022/08/29 10:50:53;;;;;;;;;;;;;;;23.33;56.67;102204.75;5035414;28;20535;-45
2022/08/29 10:53:28;;;;;;;;;;;;;;;23.40;59.50;102209.09;5037766;28;20443;-48
2022/08/29 10:55:53;;;;;;;;;;;;;;;23.76;56.30;102204.16;5022158;28;19916;-45
2022/08/29 10:58:21;;;;;;;;;;;;;;;24.10;57.51;102205.75;5038006;28;20235;-43
2022/08/29 11:00:52;;;;;;;;;;;;;;;24.13;56.33;102193.53;5035231;28;19958;-43
2022/08/29 11:03:39;;;;;;;;;;;;;;;24.11;50.50;102199.19;5037782;28;20279;-42
2022/08/29 11:06:10;;;;;;;;;;;;;;;23.99;52.37;102198.22;5026548;28;20055;-44
2022/08/29 11:08:39;;;;;;;;;;;;;;;23.89;50.85;102186.94;5017426;28;20004;-43
2022/08/29 11:11:05;;;;;;;;;;;;;;;24.03;52.34;102183.06;5020366;28;19951;-44
2022/08/29 11:13:34;;;;;;;;;;;;;;;24.10;53.60;102189.34;5030373;28;19917;-44
2022/08/29 11:16:03;;;;;;;;;;;;;;;24.26;54.27;102187.16;5017950;28;19913;-44
2022/08/29 11:18:39;;;;;;;;;;;;;;;24.10;55.34;102189.34;5017583;28;20356;-44
2022/08/29 11:21:13;;;;;;;;;;;;;;;23.73;57.94;102185.53;5016391;28;19917;-45
2022/08/29 11:23:40;;;;;;;;;;;;;;;23.40;57.75;102176.38;5015798;28;20392;-46
2022/08/29 11:26:20;;;;;;;;;;;;;;;23.04;57.41;102177.69;5018018;28;19917;-44
2022/08/29 11:28:48;;;;;;;;;;;;;;;22.87;54.67;102171.03;5018316;28;20309;-44
2022/08/29 11:31:21;;;;;;;;;;;;;;;22.84;57.55;102171.44;5017899;28;20287;-46
2022/08/29 11:33:51;;;;;;;;;;;;;;;22.86;54.32;102164.75;5016566;28;19913;-44
2022/08/29 11:36:32;;;;;;;;;;;;;;;22.70;56.94;102165.16;5016597;28;20261;-43
2022/08/29 11:39:00;;;;;;;;;;;;;;;22.79;58.52;102163.06;5034288;28;19946;-44
2022/08/29 11:41:34;;;;;;;;;;;;;;;23.01;58.02;102158.22;5029291;28;20257;-43
2022/08/29 11:44:10;;;;;;;;;;;;;;;23.22;58.12;102152.56;5016911;28;19983;-43
2022/08/29 11:46:47;;;;;;;;;;;;;;;23.63;58.35;102148.63;5016138;28;19984;-46
2022/08/29 11:49:32;;;;;;;;;;;;;;;24.08;51.82;102141.50;5034359;28;20300;-45
2022/08/29 11:52:06;;;;;;;;;;;;;;;24.29;53.75;102143.88;5023291;28;20011;-44
2022/08/29 11:54:34;;;;;;;;;;;;;;;24.43;52.98;102147.34;5026454;28;20171;-44
2022/08/29 11:57:00;;;;;;;;;;;;;;;24.52;53.14;102153.34;5035863;28;20378;-44
2022/08/29 11:59:44;;;;;;;;;;;;;;;24.75;53.07;102159.06;5036112;28;19913;-46
2022/08/29 12:02:10;;;;;;;;;;;;;;;25.00;53.93;102160.09;5033635;28;19939;-43
2022/08/29 12:04:52;;;;;;;;;;;;;;;24.81;50.42;102149.13;5033080;28;20365;-43
2022/08/29 12:07:18;;;;;;;;;;;;;;;24.41;53.65;102157.66;5035665;28;19912;-42
2022/08/29 12:09:47;;;;;;;;;;;;;;;23.99;54.29;102160.03;5036844;28;19919;-43
2022/08/29 12:12:35;;;;;;;;;;;;;;;23.63;55.75;102154.09;5019387;28;19913;-45
2022/08/29 12:15:00;;;;;;;;;;;;;;;23.54;54.29;102149.09;5016539;28;19909;-43
2022/08/29 12:17:25;;;;;;;;;;;;;;;23.72;53.87;102154.66;5049418;28;19974;-48
2022/08/29 12:19:52;;;;;;;;;;;;;;;23.76;53.93;102155.94;5016763;28;19917;-45
2022/08/29 12:22:36;;;;;;;;;;;;;;;23.90;56.21;102143.06;5016610;28;20452;-43
2022/08/29 12:25:20;;;;;;;;;;;;;;;23.81;50.42;102142.50;5016869;28;20059;-43
2022/08/29 12:27:54;;;;;;;;;;;;;;;23.45;50.63;102140.31;5024180;28;19913;-44
2022/08/29 12:30:20;;;;;;;;;;;;;;;23.38;54.14;102137.59;5017320;28;20012;-45
2022/08/29 12:33:11;;;;;;;;;;;;;;;23.33;52.74;102139.31;5016060;28;19913;-43
2022/08/29 12:35:48;;;;;;;;;;;;;;;23.47;54.79;102132.75;5000014;28;20003;-44
2022/08/29 12:38:31;;;;;;;;;;;;;;;24.01;54.08;102136.06;5029329;28;20334;-46
2022/08/29 12:40:59;;;;;;;;;;;;;;;24.61;50.41;102137.53;5030717;28;19920;-43
2022/08/29 12:43:50;;;;;;;;;;;;;;;25.19;49.78;102128.97;5021141;28;19956;-44